Time;durP1;ratioP1;P1;durP2;ratioP2;P2;SDS_P1;SDS_P2;PMS_P1;PMS_P2;Temp;Humidity;BMP_temperature;BMP_pressure;BME280_temperature;BME280_humidity;BME280_pressure;Samples;Min_cycle;Max_cycle;Signal;HPM_P1;HPM_P2
2021/05/02 00:02:05;;;;;;;9.87;7.27;;;5.80;99.90;;;;;;5020900;28;20200;-59
2021/05/02 00:04:31;;;;;;;12.80;8.03;;;5.80;99.90;;;;;;5025198;28;20430;-58
2021/05/02 00:06:57;;;;;;;10.53;7.67;;;5.80;99.90;;;;;;5031018;28;20418;-58
2021/05/02 00:09:23;;;;;;;14.37;9.07;;;5.80;99.90;;;;;;5030694;28;20179;-59
2021/05/02 00:11:48;;;;;;;16.50;8.57;;;5.80;99.90;;;;;;5023893;28;20902;-57
2021/05/02 00:14:14;;;;;;;13.40;8.70;;;5.70;99.90;;;;;;5034592;28;20687;-59
2021/05/02 00:16:41;;;;;;;13.30;9.03;;;5.70;99.90;;;;;;5027359;28;20211;-59
2021/05/02 00:19:09;;;;;;;14.67;9.07;;;5.70;99.90;;;;;;5029106;28;20176;-59
2021/05/02 00:21:35;;;;;;;14.70;9.70;;;5.70;99.90;;;;;;5025616;28;20455;-59
2021/05/02 00:24:03;;;;;;;15.80;9.60;;;5.70;99.90;;;;;;5030726;28;20448;-59
2021/05/02 00:26:29;;;;;;;14.40;9.03;;;5.70;99.90;;;;;;5026626;28;20426;-60
2021/05/02 00:28:57;;;;;;;15.70;9.67;;;5.70;99.90;;;;;;5028238;28;20439;-60
2021/05/02 00:31:24;;;;;;;14.70;9.90;;;5.80;99.90;;;;;;5032217;28;20461;-58
2021/05/02 00:33:50;;;;;;;15.00;9.57;;;5.80;99.90;;;;;;5032855;28;21062;-59
2021/05/02 00:36:16;;;;;;;11.60;8.27;;;5.70;99.90;;;;;;5034610;28;20449;-59
2021/05/02 00:38:42;;;;;;;12.87;8.70;;;5.70;99.90;;;;;;5029540;28;20446;-58
2021/05/02 00:41:22;;;;;;;11.27;7.30;;;5.70;99.90;;;;;;5012385;28;20226;-60
2021/05/02 00:44:16;;;;;;;12.50;7.80;;;5.70;99.90;;;;;;5027591;28;20422;-58
2021/05/02 00:47:01;;;;;;;13.30;8.70;;;5.70;99.90;;;;;;5029010;28;20406;-58
2021/05/02 00:49:39;;;;;;;15.60;8.60;;;5.70;99.90;;;;;;5015295;28;20431;-59
2021/05/02 00:52:25;;;;;;;16.33;9.47;;;5.70;99.90;;;;;;5021456;28;20463;-59
2021/05/02 00:55:01;;;;;;;14.00;9.90;;;5.60;99.90;;;;;;5033553;28;20803;-59
2021/05/02 00:57:31;;;;;;;18.70;11.03;;;5.70;99.90;;;;;;5028360;28;20473;-59
2021/05/02 01:00:03;;;;;;;18.47;10.17;;;5.60;99.90;;;;;;5026210;28;20431;-59
2021/05/02 01:02:32;;;;;;;17.83;9.93;;;5.70;99.90;;;;;;5021887;28;21016;-59
2021/05/02 01:04:58;;;;;;;12.77;8.67;;;5.70;99.90;;;;;;5026774;28;20938;-59
2021/05/02 01:07:28;;;;;;;13.57;8.83;;;5.70;99.90;;;;;;5026120;28;20460;-60
2021/05/02 01:09:58;;;;;;;13.77;9.20;;;5.70;99.90;;;;;;5020568;28;20473;-60
2021/05/02 01:12:27;;;;;;;15.47;10.37;;;5.60;99.90;;;;;;5024577;28;20465;-59
2021/05/02 01:14:54;;;;;;;17.33;10.23;;;5.70;99.90;;;;;;5028795;28;20500;-59
2021/05/02 01:17:21;;;;;;;22.07;10.50;;;5.70;99.90;;;;;;5029693;28;20462;-59
2021/05/02 01:19:48;;;;;;;19.73;12.07;;;5.60;99.90;;;;;;5024777;28;20786;-57
2021/05/02 01:22:20;;;;;;;18.90;10.93;;;5.60;99.90;;;;;;5026486;28;20464;-59
2021/05/02 01:24:51;;;;;;;17.67;9.80;;;5.50;99.90;;;;;;5029085;28;20442;-58
2021/05/02 01:27:26;;;;;;;19.07;12.80;;;5.50;99.90;;;;;;5029178;28;20808;-58
2021/05/02 01:29:52;;;;;;;19.53;12.47;;;5.50;99.90;;;;;;5024089;28;20461;-58
2021/05/02 01:32:19;;;;;;;22.73;12.90;;;5.50;99.90;;;;;;5027820;28;20508;-58
2021/05/02 01:34:45;;;;;;;21.83;13.57;;;5.50;99.90;;;;;;5036703;28;20551;-58
2021/05/02 01:37:11;;;;;;;28.97;15.77;;;5.40;99.90;;;;;;5025765;28;20504;-58
2021/05/02 01:39:37;;;;;;;31.50;17.00;;;5.40;99.90;;;;;;5016161;28;20572;-60
2021/05/02 01:42:03;;;;;;;31.10;17.70;;;5.40;99.90;;;;;;5025112;28;21160;-57
2021/05/02 01:44:29;;;;;;;30.13;18.47;;;5.30;99.90;;;;;;5021077;28;20451;-59
2021/05/02 01:46:58;;;;;;;32.00;17.17;;;5.30;99.90;;;;;;5017901;28;20488;-59
2021/05/02 01:49:24;;;;;;;31.03;18.63;;;5.30;99.90;;;;;;5018595;28;20179;-58
2021/05/02 01:51:50;;;;;;;30.33;18.50;;;5.20;99.90;;;;;;5028231;28;20454;-59
2021/05/02 01:54:16;;;;;;;37.67;19.87;;;5.20;99.90;;;;;;5024959;28;20861;-58
2021/05/02 01:56:43;;;;;;;37.43;19.33;;;5.20;99.90;;;;;;5033233;28;20249;-59
2021/05/02 01:59:12;;;;;;;34.20;19.63;;;5.20;99.90;;;;;;5033524;28;20422;-57
2021/05/02 02:01:38;;;;;;;36.57;21.63;;;5.10;99.90;;;;;;5024348;28;20833;-57
2021/05/02 02:04:05;;;;;;;31.70;19.00;;;5.10;99.90;;;;;;5027893;28;20445;-58
2021/05/02 02:06:32;;;;;;;34.70;20.03;;;5.10;99.90;;;;;;5027312;28;20175;-58
2021/05/02 02:08:59;;;;;;;32.80;19.27;;;5.10;99.90;;;;;;5025468;28;20434;-59
2021/05/02 02:11:29;;;;;;;33.40;19.70;;;5.10;99.90;;;;;;5022056;28;21261;-59
2021/05/02 02:13:56;;;;;;;35.90;20.30;;;5.10;99.90;;;;;;5029778;28;20428;-59
2021/05/02 02:16:23;;;;;;;33.30;19.70;;;5.10;99.90;;;;;;5031654;28;20992;-58
2021/05/02 02:18:49;;;;;;;36.73;20.63;;;5.10;99.90;;;;;;5016257;28;20505;-59
2021/05/02 02:21:20;;;;;;;34.50;20.00;;;5.10;99.90;;;;;;5021629;28;20446;-59
2021/05/02 02:24:00;;;;;;;35.37;20.70;;;5.10;99.90;;;;;;5024626;28;20430;-59
2021/05/02 02:26:39;;;;;;;37.00;20.07;;;5.10;99.90;;;;;;5018185;28;20514;-58
2021/05/02 02:29:07;;;;;;;38.17;20.53;;;5.10;99.90;;;;;;5025746;28;20422;-59
2021/05/02 02:31:35;;;;;;;34.57;21.03;;;5.10;99.90;;;;;;5031378;28;20948;-59
2021/05/02 02:34:04;;;;;;;35.63;18.20;;;5.10;99.90;;;;;;5039975;28;20465;-59
2021/05/02 02:36:30;;;;;;;31.47;18.67;;;5.10;99.90;;;;;;5025690;28;20454;-59
2021/05/02 02:38:57;;;;;;;38.20;19.47;;;5.10;99.90;;;;;;5027055;28;20423;-60
2021/05/02 02:41:25;;;;;;;33.50;20.00;;;5.10;99.90;;;;;;5026278;28;20431;-59
2021/05/02 02:43:56;;;;;;;36.70;21.07;;;5.10;99.90;;;;;;5025665;28;20425;-59
2021/05/02 02:46:23;;;;;;;35.17;20.13;;;5.10;99.90;;;;;;5014976;28;20439;-61
2021/05/02 02:49:00;;;;;;;32.90;18.93;;;5.10;99.90;;;;;;5027836;28;20422;-59
2021/05/02 02:51:27;;;;;;;32.90;18.90;;;5.10;99.90;;;;;;5025461;28;20482;-59
2021/05/02 02:53:56;;;;;;;33.67;19.10;;;5.10;99.90;;;;;;5026731;28;20434;-60
2021/05/02 02:56:23;;;;;;;34.00;18.67;;;5.10;99.90;;;;;;5029976;28;20453;-58
2021/05/02 02:58:56;;;;;;;35.07;18.90;;;5.10;99.90;;;;;;5030393;28;20457;-60
2021/05/02 03:01:22;;;;;;;27.47;17.90;;;5.00;99.90;;;;;;5032177;28;20450;-57
2021/05/02 03:03:50;;;;;;;30.90;19.27;;;5.00;99.90;;;;;;5025834;28;20438;-58
2021/05/02 03:06:18;;;;;;;30.40;17.93;;;5.00;99.90;;;;;;5031262;28;20449;-59
2021/05/02 03:08:47;;;;;;;30.73;18.10;;;5.00;99.90;;;;;;5026026;28;20431;-58
2021/05/02 03:11:15;;;;;;;32.93;19.00;;;5.10;99.90;;;;;;5028482;28;20467;-59
2021/05/02 03:13:44;;;;;;;32.10;18.70;;;5.10;99.90;;;;;;5023064;28;20584;-59
2021/05/02 03:16:10;;;;;;;39.43;18.37;;;5.00;99.90;;;;;;5029396;28;20962;-59
2021/05/02 03:18:54;;;;;;;36.57;19.10;;;5.00;99.90;;;;;;5029314;28;20438;-59
2021/05/02 03:21:27;;;;;;;29.40;17.50;;;5.00;99.90;;;;;;5030426;28;20477;-59
2021/05/02 03:23:56;;;;;;;31.90;17.67;;;5.00;99.90;;;;;;5031528;28;20438;-59
2021/05/02 03:26:24;;;;;;;30.50;17.43;;;5.00;99.90;;;;;;5029123;28;20441;-59
2021/05/02 03:28:53;;;;;;;32.27;18.00;;;5.10;99.90;;;;;;5024636;28;20495;-60
2021/05/02 03:31:24;;;;;;;29.77;17.50;;;5.10;99.90;;;;;;5031732;28;20442;-57
2021/05/02 03:33:54;;;;;;;30.13;17.13;;;5.00;99.90;;;;;;5033450;28;20584;-59
2021/05/02 03:36:32;;;;;;;27.30;17.50;;;5.00;99.90;;;;;;5036446;28;20501;-59
2021/05/02 03:38:59;;;;;;;29.60;18.70;;;4.90;99.90;;;;;;5019547;28;20467;-59
2021/05/02 03:41:25;;;;;;;36.20;19.30;;;4.90;99.90;;;;;;5030171;28;20442;-58
2021/05/02 03:43:51;;;;;;;29.90;17.00;;;4.90;99.90;;;;;;5029362;28;20896;-59
2021/05/02 03:46:26;;;;;;;31.10;17.73;;;4.90;99.90;;;;;;5027002;28;20439;-60
2021/05/02 03:48:52;;;;;;;33.17;19.87;;;4.90;99.90;;;;;;5023007;28;20169;-60
2021/05/02 03:51:18;;;;;;;28.60;17.90;;;4.90;99.90;;;;;;5025772;28;20837;-58
2021/05/02 03:53:44;;;;;;;33.03;18.90;;;4.90;99.90;;;;;;5030869;28;20438;-59
2021/05/02 03:56:10;;;;;;;27.80;17.57;;;4.90;99.90;;;;;;5031160;28;20543;-59
2021/05/02 03:58:35;;;;;;;33.07;18.43;;;4.90;99.90;;;;;;5031723;28;20164;-59
2021/05/02 04:01:01;;;;;;;31.83;17.37;;;4.90;99.90;;;;;;5027633;28;20192;-58
2021/05/02 04:03:26;;;;;;;32.30;18.67;;;4.90;99.90;;;;;;5017737;28;20179;-59
2021/05/02 04:05:52;;;;;;;29.10;18.30;;;4.90;99.90;;;;;;5027444;28;20202;-59
2021/05/02 04:08:18;;;;;;;33.70;18.43;;;4.90;99.90;;;;;;5035934;28;20176;-60
2021/05/02 04:10:43;;;;;;;32.67;18.40;;;4.80;99.90;;;;;;5028514;28;20176;-59
2021/05/02 04:13:09;;;;;;;31.30;17.60;;;4.80;99.90;;;;;;5029844;28;20422;-58
2021/05/02 04:15:34;;;;;;;31.07;18.63;;;4.80;99.90;;;;;;5027806;28;20623;-59
2021/05/02 04:18:00;;;;;;;29.40;17.60;;;4.80;99.90;;;;;;5024674;28;20219;-59
2021/05/02 04:20:26;;;;;;;31.13;17.63;;;4.80;99.90;;;;;;5027076;28;20178;-59
2021/05/02 04:22:52;;;;;;;30.80;17.83;;;4.80;99.90;;;;;;5018286;28;20579;-58
2021/05/02 04:25:17;;;;;;;33.83;18.23;;;4.80;99.90;;;;;;5023835;28;20270;-58
2021/05/02 04:27:43;;;;;;;29.97;18.67;;;4.80;99.90;;;;;;5031376;28;20262;-59
2021/05/02 04:30:10;;;;;;;33.63;19.47;;;4.80;99.90;;;;;;5023676;28;20235;-58
2021/05/02 04:32:36;;;;;;;31.63;18.50;;;4.90;99.90;;;;;;5045491;28;20569;-61
2021/05/02 04:35:03;;;;;;;32.63;19.33;;;4.90;99.90;;;;;;5050869;28;20445;-60
2021/05/02 04:37:28;;;;;;;33.27;17.97;;;4.90;99.90;;;;;;5052884;28;20203;-60
2021/05/02 04:39:54;;;;;;;30.57;18.07;;;4.90;99.90;;;;;;5052873;28;20422;-60
2021/05/02 04:42:19;;;;;;;30.50;18.33;;;4.90;99.90;;;;;;5052365;28;20207;-60
2021/05/02 04:44:45;;;;;;;30.03;18.13;;;4.90;99.90;;;;;;5069501;28;20211;-60
2021/05/02 04:47:18;;;;;;;36.77;18.57;;;4.90;99.90;;;;;;5074193;28;20159;-59
2021/05/02 04:49:44;;;;;;;31.50;19.03;;;4.90;99.90;;;;;;5026721;28;20181;-58
2021/05/02 04:52:09;;;;;;;32.47;17.90;;;5.00;99.90;;;;;;5030623;28;20503;-59
2021/05/02 04:54:35;;;;;;;31.50;18.67;;;4.90;99.90;;;;;;5026243;28;20542;-59
2021/05/02 04:57:00;;;;;;;30.33;18.70;;;5.00;99.90;;;;;;5027375;28;20234;-58
2021/05/02 04:59:26;;;;;;;36.77;18.67;;;4.90;99.90;;;;;;5038993;28;20187;-59
2021/05/02 05:01:52;;;;;;;30.37;18.47;;;5.00;99.90;;;;;;5023778;28;20733;-61
2021/05/02 05:04:17;;;;;;;33.60;18.20;;;4.90;99.90;;;;;;5028849;28;20191;-58
2021/05/02 05:06:43;;;;;;;30.60;18.77;;;4.90;99.90;;;;;;5028215;28;20226;-59
2021/05/02 05:09:08;;;;;;;27.97;18.13;;;4.90;99.90;;;;;;5028906;28;20552;-58
2021/05/02 05:11:36;;;;;;;29.57;18.20;;;4.90;99.90;;;;;;5035507;28;20728;-60
2021/05/02 05:14:02;;;;;;;31.40;18.50;;;4.90;99.90;;;;;;5029654;28;20175;-57
2021/05/02 05:16:28;;;;;;;32.73;17.47;;;4.90;99.90;;;;;;5028326;28;20450;-59
2021/05/02 05:18:54;;;;;;;29.00;18.13;;;4.90;99.90;;;;;;5025483;28;20180;-59
2021/05/02 05:21:19;;;;;;;32.73;19.33;;;4.90;99.90;;;;;;5025498;28;20445;-59
2021/05/02 05:23:45;;;;;;;29.20;17.70;;;4.90;99.90;;;;;;5022217;28;20532;-58
2021/05/02 05:26:11;;;;;;;31.73;17.43;;;4.90;99.90;;;;;;5022149;28;20176;-59
2021/05/02 05:28:36;;;;;;;29.73;17.40;;;5.00;99.90;;;;;;5028391;28;20186;-59
2021/05/02 05:31:02;;;;;;;29.00;17.93;;;4.90;99.90;;;;;;5023826;28;20211;-59
2021/05/02 05:33:30;;;;;;;32.03;19.23;;;5.00;99.90;;;;;;5029883;28;20362;-58
2021/05/02 05:35:56;;;;;;;31.30;19.63;;;5.00;99.90;;;;;;5026371;28;20191;-58
2021/05/02 05:38:22;;;;;;;28.67;17.60;;;5.00;99.90;;;;;;5018213;28;20427;-58
2021/05/02 05:40:48;;;;;;;35.50;20.03;;;5.00;99.90;;;;;;5027230;28;20434;-58
2021/05/02 05:43:13;;;;;;;34.40;19.40;;;5.00;99.90;;;;;;5022718;28;20774;-61
2021/05/02 05:45:39;;;;;;;35.53;19.97;;;5.10;99.90;;;;;;5021168;28;20183;-57
2021/05/02 05:48:05;;;;;;;29.10;17.67;;;5.10;99.90;;;;;;5024872;28;20183;-59
2021/05/02 05:50:32;;;;;;;29.27;17.07;;;5.10;99.90;;;;;;5025219;28;20222;-58
2021/05/02 05:52:57;;;;;;;26.33;18.03;;;5.10;99.90;;;;;;5027754;28;20204;-57
2021/05/02 05:55:23;;;;;;;28.37;18.00;;;5.10;99.90;;;;;;5023496;28;20791;-57
2021/05/02 05:57:50;;;;;;;30.03;18.70;;;5.10;99.90;;;;;;5015828;28;20273;-59
2021/05/02 06:00:18;;;;;;;22.80;15.80;;;5.10;99.90;;;;;;5028784;28;20695;-60
2021/05/02 06:02:44;;;;;;;29.00;17.33;;;5.20;99.90;;;;;;5021953;28;20460;-60
2021/05/02 06:05:10;;;;;;;30.57;17.53;;;5.20;99.90;;;;;;5025549;28;20427;-59
2021/05/02 06:07:36;;;;;;;29.37;17.60;;;5.20;99.90;;;;;;5023551;28;20668;-60
2021/05/02 06:10:05;;;;;;;29.63;18.70;;;5.30;99.90;;;;;;5022847;28;20465;-58
2021/05/02 06:12:31;;;;;;;29.63;18.40;;;5.30;99.90;;;;;;5022434;28;20215;-59
2021/05/02 06:14:56;;;;;;;28.53;19.17;;;5.40;99.90;;;;;;5025460;28;20651;-59
2021/05/02 06:17:22;;;;;;;30.80;18.80;;;5.40;99.90;;;;;;5024228;28;20198;-59
2021/05/02 06:19:48;;;;;;;30.27;18.67;;;5.50;99.90;;;;;;5031194;28;20208;-60
2021/05/02 06:22:13;;;;;;;32.60;18.50;;;5.60;99.90;;;;;;5022234;28;20677;-59
2021/05/02 06:24:39;;;;;;;30.07;18.90;;;5.60;99.90;;;;;;5017312;28;20180;-57
2021/05/02 06:27:05;;;;;;;35.23;19.60;;;5.70;99.90;;;;;;5025043;28;20176;-60
2021/05/02 06:29:30;;;;;;;27.97;17.33;;;5.80;99.90;;;;;;5020475;28;20233;-60
2021/05/02 06:31:56;;;;;;;31.77;19.50;;;5.90;99.90;;;;;;5019495;28;20544;-59
2021/05/02 06:34:22;;;;;;;30.67;19.50;;;5.90;99.90;;;;;;5027120;28;20556;-59
2021/05/02 06:36:47;;;;;;;33.50;18.90;;;6.00;99.90;;;;;;5017275;28;20342;-60
2021/05/02 06:39:13;;;;;;;30.90;18.20;;;6.10;99.90;;;;;;5019892;28;20175;-59
2021/05/02 06:41:44;;;;;;;27.30;17.83;;;6.10;99.90;;;;;;5024349;28;20226;-60
2021/05/02 06:44:10;;;;;;;28.07;17.43;;;6.20;99.90;;;;;;5024250;28;20204;-60
2021/05/02 06:46:37;;;;;;;41.17;17.63;;;6.20;99.90;;;;;;5023143;28;20485;-60
2021/05/02 06:49:06;;;;;;;32.80;17.53;;;6.20;99.90;;;;;;5030036;28;20512;-58
2021/05/02 06:51:35;;;;;;;30.83;18.67;;;6.20;99.90;;;;;;5029569;28;20446;-61
2021/05/02 06:54:02;;;;;;;28.27;16.77;;;6.20;99.90;;;;;;5011154;28;21147;-61
2021/05/02 06:56:28;;;;;;;26.80;15.70;;;6.20;99.90;;;;;;5015936;28;20469;-60
2021/05/02 06:58:58;;;;;;;27.33;16.57;;;6.20;99.90;;;;;;5019441;28;20460;-61
2021/05/02 07:01:25;;;;;;;27.30;16.03;;;6.20;99.90;;;;;;5018174;28;20823;-61
2021/05/02 07:03:51;;;;;;;27.27;16.60;;;6.20;99.90;;;;;;5014685;28;20464;-60
2021/05/02 07:06:17;;;;;;;26.90;17.50;;;6.30;99.90;;;;;;5018098;28;20435;-60
2021/05/02 07:08:42;;;;;;;30.80;16.00;;;6.30;99.90;;;;;;5021716;28;20187;-60
2021/05/02 07:11:08;;;;;;;26.00;17.10;;;6.30;99.90;;;;;;5014333;28;20196;-59
2021/05/02 07:13:34;;;;;;;24.00;15.93;;;6.30;99.90;;;;;;5021294;28;20250;-59
2021/05/02 07:16:00;;;;;;;25.07;15.90;;;6.40;99.90;;;;;;5017998;28;20270;-58
2021/05/02 07:18:35;;;;;;;27.93;15.50;;;6.40;99.90;;;;;;5021032;28;20444;-59
2021/05/02 07:21:01;;;;;;;23.10;14.40;;;6.40;99.90;;;;;;5031434;28;20444;-58
2021/05/02 07:23:27;;;;;;;26.20;15.67;;;6.40;99.90;;;;;;5022237;28;20422;-59
2021/05/02 07:25:54;;;;;;;22.60;15.20;;;6.40;99.90;;;;;;5020979;28;20441;-59
2021/05/02 07:28:19;;;;;;;30.30;15.17;;;6.50;99.90;;;;;;5019190;28;20465;-58
2021/05/02 07:30:45;;;;;;;25.07;15.50;;;6.50;99.90;;;;;;5022252;28;20478;-59
2021/05/02 07:33:11;;;;;;;26.63;16.27;;;6.60;99.90;;;;;;5032397;28;20196;-61
2021/05/02 07:35:37;;;;;;;27.73;16.20;;;6.80;99.90;;;;;;5021492;28;20586;-59
2021/05/02 07:38:03;;;;;;;24.33;14.50;;;7.00;99.90;;;;;;5021716;28;20286;-59
2021/05/02 07:40:29;;;;;;;22.97;15.30;;;7.10;99.90;;;;;;5022519;28;20199;-59
2021/05/02 07:42:55;;;;;;;23.13;15.67;;;7.20;99.90;;;;;;5023046;28;20497;-60
2021/05/02 07:45:20;;;;;;;24.60;15.67;;;7.30;99.90;;;;;;5020737;28;20433;-60
2021/05/02 07:47:46;;;;;;;23.63;14.83;;;7.40;99.90;;;;;;5025496;28;20267;-59
2021/05/02 07:50:13;;;;;;;24.77;15.70;;;7.50;99.90;;;;;;5038568;28;20180;-59
2021/05/02 07:52:39;;;;;;;24.10;15.40;;;7.50;99.90;;;;;;5029796;28;20758;-60
2021/05/02 07:55:05;;;;;;;27.10;16.50;;;7.50;99.90;;;;;;5019631;28;20418;-59
2021/05/02 07:57:31;;;;;;;30.77;15.67;;;7.50;99.90;;;;;;5025029;28;20477;-58
2021/05/02 07:59:56;;;;;;;23.70;16.00;;;7.50;99.90;;;;;;5030149;28;20442;-59
2021/05/02 08:02:22;;;;;;;22.50;15.17;;;7.60;99.90;;;;;;5021147;28;20196;-58
2021/05/02 08:04:48;;;;;;;23.30;15.40;;;7.60;99.90;;;;;;5025755;28;20274;-59
2021/05/02 08:07:14;;;;;;;23.13;15.83;;;7.70;99.90;;;;;;5031022;28;20525;-59
2021/05/02 08:09:40;;;;;;;24.40;15.57;;;7.70;99.90;;;;;;5033465;28;20426;-60
2021/05/02 08:12:07;;;;;;;22.60;15.90;;;7.70;99.70;;;;;;5031471;28;20229;-58
2021/05/02 08:14:33;;;;;;;24.43;17.30;;;7.70;98.80;;;;;;5034396;28;20204;-57
2021/05/02 08:16:59;;;;;;;25.27;17.03;;;7.90;99.60;;;;;;5034911;28;20490;-58
2021/05/02 08:19:26;;;;;;;24.60;17.00;;;8.00;99.20;;;;;;5035767;28;20954;-60
2021/05/02 08:21:52;;;;;;;24.83;15.37;;;8.10;95.80;;;;;;5026045;28;20265;-60
2021/05/02 08:24:18;;;;;;;23.80;16.37;;;8.10;92.90;;;;;;5027469;28;20470;-55
2021/05/02 08:26:43;;;;;;;22.73;15.43;;;8.00;93.10;;;;;;5026266;28;20508;-57
2021/05/02 08:29:09;;;;;;;23.43;15.87;;;8.00;92.80;;;;;;5019975;28;20262;-56
2021/05/02 08:31:36;;;;;;;22.97;15.80;;;8.00;91.90;;;;;;5018369;28;20268;-57
2021/05/02 08:34:02;;;;;;;29.20;17.40;;;8.00;92.20;;;;;;5021129;28;20187;-55
2021/05/02 08:36:28;;;;;;;26.03;14.40;;;7.90;89.80;;;;;;5021687;28;20498;-59
2021/05/02 08:38:55;;;;;;;22.10;15.90;;;7.90;85.50;;;;;;5021530;28;20454;-58
2021/05/02 08:41:21;;;;;;;29.63;15.97;;;7.90;85.90;;;;;;5021782;28;20196;-60
2021/05/02 08:43:54;;;;;;;22.80;15.67;;;7.90;85.10;;;;;;5020122;28;20438;-59
2021/05/02 08:46:20;;;;;;;25.73;17.30;;;8.10;85.70;;;;;;5017551;28;20686;-59
2021/05/02 08:48:45;;;;;;;23.60;14.97;;;8.20;86.70;;;;;;5025308;28;20439;-59
2021/05/02 08:51:11;;;;;;;24.40;15.80;;;8.30;81.00;;;;;;5023991;28;20454;-60
2021/05/02 08:53:37;;;;;;;24.97;15.63;;;8.30;83.00;;;;;;5019306;28;20180;-58
2021/05/02 08:56:03;;;;;;;24.37;16.40;;;8.20;77.00;;;;;;5017706;28;20488;-58
2021/05/02 08:58:30;;;;;;;22.40;15.10;;;8.10;81.30;;;;;;5017033;28;20649;-58
2021/05/02 09:00:59;;;;;;;23.83;16.70;;;8.00;82.40;;;;;;5017664;28;20435;-59
2021/05/02 09:03:45;;;;;;;21.10;15.03;;;7.90;86.10;;;;;;5021393;28;20512;-58
2021/05/02 09:06:26;;;;;;;23.57;15.37;;;7.90;87.80;;;;;;5015740;28;20492;-57
2021/05/02 09:08:57;;;;;;;21.13;14.80;;;7.90;90.30;;;;;;5019320;28;20644;-60
2021/05/02 09:11:42;;;;;;;25.33;15.37;;;7.90;91.10;;;;;;5020494;28;20469;-59
2021/05/02 09:14:18;;;;;;;22.73;15.33;;;7.90;91.60;;;;;;5021656;28;20481;-63
2021/05/02 09:16:45;;;;;;;25.70;16.50;;;8.00;93.40;;;;;;5023978;28;20493;-58
2021/05/02 09:19:10;;;;;;;23.73;15.70;;;8.10;93.90;;;;;;5022813;28;20426;-57
2021/05/02 09:21:36;;;;;;;21.37;15.60;;;8.10;92.40;;;;;;5021500;28;20457;-59
2021/05/02 09:24:06;;;;;;;35.37;16.07;;;8.20;91.10;;;;;;5017151;28;20306;-58
2021/05/02 09:26:32;;;;;;;21.37;15.37;;;8.40;91.00;;;;;;5015822;28;20274;-59
2021/05/02 09:29:02;;;;;;;22.73;15.40;;;8.80;92.30;;;;;;5023742;28;20444;-59
2021/05/02 09:31:34;;;;;;;20.60;14.77;;;9.20;90.90;;;;;;5031425;28;20452;-59
2021/05/02 09:34:13;;;;;;;19.17;14.50;;;9.50;84.30;;;;;;5021870;28;20443;-61
2021/05/02 09:36:55;;;;;;;23.77;15.27;;;9.60;77.80;;;;;;5020612;28;21114;-58
2021/05/02 09:39:39;;;;;;;19.77;13.33;;;9.60;74.20;;;;;;5013847;28;20434;-57
2021/05/02 09:42:07;;;;;;;21.50;15.10;;;9.30;67.70;;;;;;5014955;28;20454;-59
2021/05/02 09:44:52;;;;;;;17.77;13.30;;;9.20;74.30;;;;;;5023872;28;20435;-57
2021/05/02 09:47:25;;;;;;;21.43;14.67;;;9.00;77.10;;;;;;5023874;28;20435;-57
2021/05/02 09:50:20;;;;;;;20.40;14.10;;;8.90;78.30;;;;;;5018950;28;20877;-58
2021/05/02 09:53:01;;;;;;;24.63;15.03;;;8.80;77.30;;;;;;5020052;28;21275;-59
2021/05/02 09:55:34;;;;;;;21.27;14.30;;;8.80;79.20;;;;;;5015711;28;20910;-58
2021/05/02 09:58:07;;;;;;;20.57;14.30;;;8.70;84.80;;;;;;5016485;28;20460;-58
2021/05/02 10:00:37;;;;;;;21.07;15.10;;;8.60;84.40;;;;;;5018725;28;20419;-59
2021/05/02 10:03:08;;;;;;;19.50;14.17;;;8.60;87.70;;;;;;5019235;28;20442;-59
2021/05/02 10:05:35;;;;;;;23.30;15.60;;;8.60;85.50;;;;;;5015989;28;21026;-62
2021/05/02 10:08:01;;;;;;;18.60;13.27;;;8.60;83.20;;;;;;5020666;28;20427;-59
2021/05/02 10:10:27;;;;;;;19.43;13.60;;;8.60;72.70;;;;;;5018450;28;20576;-60
2021/05/02 10:12:54;;;;;;;18.03;14.33;;;8.60;76.20;;;;;;5014197;28;21097;-57
2021/05/02 10:15:23;;;;;;;21.93;13.90;;;8.50;74.70;;;;;;5018020;28;21018;-60
2021/05/02 10:17:51;;;;;;;19.43;13.83;;;8.50;76.30;;;;;;5014047;28;20471;-59
2021/05/02 10:20:19;;;;;;;25.10;14.77;;;8.50;77.60;;;;;;5025693;28;20494;-57
2021/05/02 10:22:46;;;;;;;21.03;14.77;;;8.50;77.10;;;;;;5021454;28;20450;-60
2021/05/02 10:25:15;;;;;;;18.30;13.47;;;8.50;78.00;;;;;;5022544;28;20856;-59
2021/05/02 10:27:47;;;;;;;20.30;14.40;;;8.50;78.50;;;;;;5032214;28;20496;-58
2021/05/02 10:30:36;;;;;;;21.20;13.83;;;8.50;74.30;;;;;;5025132;28;20450;-59
2021/05/02 10:33:10;;;;;;;18.13;13.60;;;8.50;76.30;;;;;;5021829;28;20960;-58
2021/05/02 10:35:51;;;;;;;22.40;13.90;;;8.60;77.10;;;;;;5020934;28;20442;-59
2021/05/02 10:38:44;;;;;;;19.67;13.50;;;8.60;76.00;;;;;;5026720;28;20974;-58
2021/05/02 10:41:29;;;;;;;20.97;13.60;;;8.90;77.60;;;;;;5018194;28;20455;-60
2021/05/02 10:43:57;;;;;;;19.33;14.07;;;9.30;71.50;;;;;;5023819;28;20431;-59
2021/05/02 10:46:47;;;;;;;22.60;13.97;;;9.60;68.70;;;;;;5016457;28;21443;-60
2021/05/02 10:49:18;;;;;;;22.13;14.90;;;10.00;63.20;;;;;;5017047;28;21070;-60
2021/05/02 10:51:45;;;;;;;21.20;15.10;;;10.40;64.30;;;;;;5017217;28;20502;-58
2021/05/02 10:54:38;;;;;;;20.20;14.17;;;10.80;66.00;;;;;;5012290;28;20434;-58
2021/05/02 10:57:04;;;;;;;21.63;13.40;;;11.20;65.10;;;;;;5015124;28;20502;-59
2021/05/02 11:00:01;;;;;;;18.30;13.30;;;11.60;61.30;;;;;;5016250;28;20435;-58
2021/05/02 11:02:34;;;;;;;16.00;12.57;;;11.70;58.20;;;;;;5017447;28;20813;-58
2021/05/02 11:05:01;;;;;;;16.43;13.23;;;11.60;54.80;;;;;;5016929;28;20435;-58
2021/05/02 11:07:39;;;;;;;18.80;13.10;;;11.40;56.40;;;;;;5020077;28;20480;-57
2021/05/02 11:10:07;;;;;;;18.00;13.20;;;11.20;57.70;;;;;;5026763;28;20479;-58
2021/05/02 11:12:34;;;;;;;22.10;13.57;;;10.90;57.10;;;;;;5019370;28;20509;-58
2021/05/02 11:15:00;;;;;;;18.00;12.10;;;10.70;60.70;;;;;;5026729;28;20468;-58
2021/05/02 11:17:27;;;;;;;17.43;13.07;;;10.50;65.30;;;;;;5023201;28;20962;-58
2021/05/02 11:19:55;;;;;;;17.83;12.87;;;10.40;64.70;;;;;;5019127;28;20438;-58
2021/05/02 11:22:24;;;;;;;12.50;10.37;;;10.30;70.80;;;;;;5037387;28;20501;-58
2021/05/02 11:24:51;;;;;;;14.27;10.87;;;10.30;71.80;;;;;;5023645;28;20437;-57
2021/05/02 11:30:05;;;;;;;11.83;9.67;;;10.30;70.40;;;;;;5028965;28;21076;-59
2021/05/02 11:32:40;;;;;;;13.20;9.53;;;10.50;66.00;;;;;;5029828;28;20527;-58
2021/05/02 11:35:11;;;;;;;15.07;10.40;;;10.70;62.50;;;;;;5018248;28;20434;-59
2021/05/02 11:37:40;;;;;;;13.60;10.50;;;10.90;60.20;;;;;;5029098;28;20521;-59
2021/05/02 11:40:32;;;;;;;22.33;11.83;;;10.90;57.70;;;;;;5034001;28;20490;-59
2021/05/02 11:42:58;;;;;;;14.53;10.10;;;10.80;58.50;;;;;;5030959;28;20548;-58
2021/05/02 11:45:47;;;;;;;14.30;11.30;;;10.70;57.90;;;;;;5020236;28;20521;-57
2021/05/02 11:48:23;;;;;;;15.23;11.33;;;10.30;55.20;;;;;;5030091;28;20437;-58
2021/05/02 11:50:54;;;;;;;16.00;10.23;;;10.10;56.80;;;;;;5022435;28;20917;-58
2021/05/02 11:53:35;;;;;;;16.27;10.83;;;9.90;58.30;;;;;;5020967;28;20439;-58
2021/05/02 11:56:01;;;;;;;14.50;10.50;;;9.70;59.40;;;;;;5026519;28;20648;-59
2021/05/02 11:58:27;;;;;;;21.17;13.27;;;9.50;59.30;;;;;;5028042;28;20527;-57
2021/05/02 12:00:55;;;;;;;16.43;11.00;;;9.40;62.70;;;;;;5025686;28;20446;-58
2021/05/02 12:03:37;;;;;;;15.17;10.63;;;9.40;63.20;;;;;;5020647;28;20443;-60
2021/05/02 12:06:05;;;;;;;14.77;10.50;;;9.30;63.80;;;;;;5026104;28;20449;-58
2021/05/02 12:08:32;;;;;;;15.00;9.70;;;9.30;67.90;;;;;;5028820;28;20986;-58
2021/05/02 12:11:05;;;;;;;11.23;9.20;;;9.30;68.00;;;;;;5037373;28;20491;-59
2021/05/02 12:13:37;;;;;;;12.50;9.30;;;9.40;65.50;;;;;;5026024;28;21072;-58
2021/05/02 12:16:08;;;;;;;10.47;8.33;;;9.50;62.50;;;;;;5029332;28;20465;-60
2021/05/02 12:18:49;;;;;;;12.20;9.00;;;9.50;65.20;;;;;;5026465;28;20498;-61
2021/05/02 12:21:26;;;;;;;11.47;8.30;;;9.60;68.00;;;;;;5030624;28;20799;-60
2021/05/02 12:24:05;;;;;;;11.23;9.03;;;9.50;67.40;;;;;;5026744;28;20437;-59
2021/05/02 12:26:31;;;;;;;9.40;7.67;;;9.30;73.30;;;;;;5026932;28;20434;-60
2021/05/02 12:28:58;;;;;;;9.37;7.00;;;9.40;78.60;;;;;;5032412;28;20440;-59
2021/05/02 12:31:24;;;;;;;9.33;7.43;;;9.80;77.90;;;;;;5026629;28;20454;-59
2021/05/02 12:33:50;;;;;;;8.70;7.40;;;10.20;70.10;;;;;;5020809;28;20572;-60
2021/05/02 12:36:27;;;;;;;9.00;7.50;;;10.40;62.60;;;;;;5018737;28;20437;-61
2021/05/02 12:39:02;;;;;;;11.03;7.70;;;10.30;61.20;;;;;;5019462;28;21275;-60
2021/05/02 12:41:27;;;;;;;10.23;8.20;;;10.00;65.80;;;;;;5022364;28;20473;-59
2021/05/02 12:43:53;;;;;;;9.83;7.90;;;9.70;65.80;;;;;;5018063;28;20429;-58
2021/05/02 12:46:42;;;;;;;14.03;8.87;;;9.40;68.50;;;;;;5011230;28;20184;-57
2021/05/02 12:49:23;;;;;;;11.47;8.67;;;9.10;71.60;;;;;;5024452;28;20529;-59
2021/05/02 12:51:55;;;;;;;12.63;9.00;;;8.80;73.00;;;;;;5028563;28;20975;-56